< Cyclone 201504 2015 Season Cyclone 201514 >
Cyclone 201513 (Lam)
General InformationTrack Information on Google MapsDetailed Wind InformationList of All Images || ResourceGoogle EarthGE AnimationAtom FeedGeoJSON
Detalied Best Track (Time Zone = UTC)
Year Month Day Hour Lat. Long. Pressure (hPa) Wind (kt) Class Image Chart
2015 2 14 00 -12.2 145.1 1003 0 0 Image --
2015 2 14 06 -12.5 144.8 1003 15 2 Image --
2015 2 15 00 -12.8 143.9 1004 15 2 Image --
2015 2 15 06 -12.6 142.5 1001 15 2 Image --
2015 2 15 12 -12.0 141.7 1004 20 2 Image --
2015 2 15 18 -11.9 141.4 1003 20 2 Image --
2015 2 15 21 -11.6 140.8 1002 20 2 Image --
2015 2 16 00 -11.4 140.5 1001 25 2 Image --
2015 2 16 06 -11.1 140.1 998 25 2 Image --
2015 2 16 12 -11.2 140.1 998 30 2 Image --
2015 2 16 18 -11.5 139.8 993 40 3 Image --
2015 2 17 00 -11.5 139.4 985 50 4 Image --
2015 2 17 06 -11.5 138.8 984 55 4 Image --
2015 2 17 12 -11.4 138.5 983 55 4 Image --
2015 2 17 18 -11.3 138.0 981 55 4 Image --
2015 2 18 00 -11.1 137.2 977 60 4 Image --
2015 2 18 06 -10.9 136.7 971 65 5 Image --
2015 2 18 12 -10.7 136.5 971 65 5 Image --
2015 2 18 18 -11.0 136.4 965 75 5 Image --
2015 2 19 00 -11.2 136.1 966 75 5 Image --
2015 2 19 06 -11.6 135.7 964 80 5 Image --
2015 2 19 12 -11.9 135.4 943 100 5 Image --
2015 2 19 18 -12.2 134.9 943 95 5 Image --
2015 2 20 00 -12.8 134.5 979 60 4 Image --
2015 2 20 12 -14.3 133.2 979 0 0 Image --
2015 2 20 18 -14.7 133.0 979 0 0 Image --
< Cyclone 201504 2015 Season Cyclone 201514 >

Help